Time;durP1;ratioP1;P1;durP2;ratioP2;P2;SDS_P1;SDS_P2;PMS_P1;PMS_P2;Temp;Humidity;BMP_temperature;BMP_pressure;BME280_temperature;BME280_humidity;BME280_pressure;Samples;Min_cycle;Max_cycle;Signal;HPM_P1;HPM_P2
2022/03/29 00:01:59;;;;;;;45.83;37.13;;;7.80;99.90;;;;;;4997523;28;20046;-72
2022/03/29 00:04:26;;;;;;;44.20;36.67;;;7.70;99.90;;;;;;4996274;28;20113;-72
2022/03/29 00:06:53;;;;;;;48.58;38.17;;;7.70;99.90;;;;;;4992817;28;20176;-73
2022/03/29 00:09:19;;;;;;;45.53;37.33;;;7.70;99.90;;;;;;5023324;28;20053;-72
2022/03/29 00:11:44;;;;;;;46.10;38.25;;;7.70;99.90;;;;;;5037635;28;20046;-73
2022/03/29 00:14:12;;;;;;;47.53;38.03;;;7.70;99.90;;;;;;4996246;28;20417;-73
2022/03/29 00:16:39;;;;;;;50.03;40.95;;;7.70;99.90;;;;;;5039408;28;20058;-73
2022/03/29 00:19:05;;;;;;;50.13;40.70;;;7.70;99.90;;;;;;5024154;28;20066;-73
2022/03/29 00:21:31;;;;;;;47.40;38.05;;;7.70;99.90;;;;;;4995310;28;20315;-72
2022/03/29 00:23:59;;;;;;;44.63;36.25;;;7.70;99.90;;;;;;5032124;28;20042;-73
2022/03/29 00:26:25;;;;;;;42.30;34.92;;;7.70;99.90;;;;;;5009265;28;20445;-73
2022/03/29 00:28:51;;;;;;;41.45;33.55;;;7.70;99.90;;;;;;5027425;28;20046;-73
2022/03/29 00:31:19;;;;;;;42.17;34.28;;;7.70;99.90;;;;;;5037359;28;20046;-73
2022/03/29 00:33:46;;;;;;;44.38;37.50;;;7.70;99.90;;;;;;5002414;28;20239;-72
2022/03/29 00:36:11;;;;;;;47.73;39.37;;;7.70;99.90;;;;;;5004640;28;20042;-73
2022/03/29 00:38:37;;;;;;;48.65;38.50;;;7.70;99.90;;;;;;4996090;28;20298;-72
2022/03/29 00:41:03;;;;;;;48.80;39.22;;;7.70;99.90;;;;;;4992428;28;20069;-73
2022/03/29 00:43:31;;;;;;;48.80;41.15;;;7.70;99.90;;;;;;5004567;28;20057;-72
2022/03/29 00:45:57;;;;;;;51.47;41.15;;;7.70;99.90;;;;;;5027232;28;20065;-73
2022/03/29 00:48:23;;;;;;;51.10;41.28;;;7.60;99.90;;;;;;5003086;28;20148;-72
2022/03/29 00:50:50;;;;;;;47.60;41.25;;;7.60;99.90;;;;;;5008737;28;20054;-73
2022/03/29 00:53:17;;;;;;;48.42;41.92;;;7.60;99.90;;;;;;5005607;28;20148;-73
2022/03/29 00:55:44;;;;;;;49.17;42.63;;;7.60;99.90;;;;;;5004984;28;20473;-73
2022/03/29 00:58:11;;;;;;;51.23;42.07;;;7.60;99.90;;;;;;5006897;28;20092;-73
2022/03/29 01:00:37;;;;;;;;;;;7.60;99.90;;;;;;5004621;28;20038;-73
2022/03/29 01:03:04;;;;;;;48.63;42.42;;;7.50;99.90;;;;;;4999298;28;19926;-73
2022/03/29 01:05:30;;;;;;;47.85;42.60;;;7.40;99.90;;;;;;5003619;28;20057;-73
2022/03/29 01:07:57;;;;;;;49.15;41.90;;;7.50;99.90;;;;;;4993985;28;20137;-73
2022/03/29 01:10:24;;;;;;;51.50;43.80;;;7.50;99.90;;;;;;5006253;28;20050;-73
2022/03/29 01:12:50;;;;;;;50.38;42.78;;;7.50;99.90;;;;;;4996122;28;20048;-73
2022/03/29 01:15:17;;;;;;;51.30;42.75;;;7.50;99.90;;;;;;5007904;28;20042;-73
2022/03/29 01:17:43;;;;;;;50.28;42.80;;;7.50;99.90;;;;;;5008204;28;20042;-73
2022/03/29 01:20:24;;;;;;;51.03;41.83;;;7.40;99.90;;;;;;5008217;28;20050;-74
2022/03/29 01:22:51;;;;;;;47.47;41.65;;;7.40;99.90;;;;;;5006730;28;20052;-73
2022/03/29 01:25:19;;;;;;;48.13;41.72;;;7.40;99.90;;;;;;5009499;28;20096;-73
2022/03/29 01:27:46;;;;;;;;;;;7.30;99.90;;;;;;5010205;28;20129;-73
2022/03/29 01:30:13;;;;;;;50.58;40.85;;;7.30;99.90;;;;;;5010779;28;19925;-73
2022/03/29 01:32:50;;;;;;;49.60;43.05;;;7.40;99.90;;;;;;5010500;28;20041;-72
2022/03/29 01:35:18;;;;;;;51.13;43.65;;;7.40;99.90;;;;;;5034192;28;20069;-73
2022/03/29 01:37:44;;;;;;;47.08;41.97;;;7.40;99.90;;;;;;4999375;28;20137;-73
2022/03/29 01:40:12;;;;;;;49.30;42.13;;;7.40;99.90;;;;;;5038057;28;20136;-73
2022/03/29 01:42:41;;;;;;;49.10;42.85;;;7.30;99.90;;;;;;5005194;28;20077;-73
2022/03/29 01:45:07;;;;;;;52.22;43.95;;;7.40;99.90;;;;;;5008852;28;20093;-74
2022/03/29 01:47:33;;;;;;;49.67;44.00;;;7.30;99.90;;;;;;5002843;28;20112;-72
2022/03/29 01:49:58;;;;;;;53.13;44.60;;;7.30;99.90;;;;;;4996949;28;20058;-72
2022/03/29 01:52:24;;;;;;;53.75;44.75;;;7.30;99.90;;;;;;4993909;28;20868;-73
2022/03/29 01:54:50;;;;;;;51.28;44.90;;;7.30;99.90;;;;;;5004654;28;20057;-72
2022/03/29 01:57:15;;;;;;;53.53;46.13;;;7.30;99.90;;;;;;5005472;28;20070;-72
2022/03/29 02:02:25;;;;;;;52.95;46.42;;;7.20;99.90;;;;;;4999328;28;20050;-73
2022/03/29 02:04:51;;;;;;;58.33;46.65;;;7.20;99.90;;;;;;4996933;28;20049;-73
2022/03/29 02:07:16;;;;;;;53.50;46.58;;;7.20;99.90;;;;;;5005048;28;20046;-73
2022/03/29 02:09:43;;;;;;;56.40;47.13;;;7.30;99.90;;;;;;5033275;28;20132;-74
2022/03/29 02:12:12;;;;;;;55.33;46.63;;;7.30;99.90;;;;;;5008802;28;20058;-73
2022/03/29 02:14:38;;;;;;;55.72;46.95;;;7.30;99.90;;;;;;5007578;28;20140;-73
2022/03/29 02:17:04;;;;;;;57.63;48.30;;;7.30;99.90;;;;;;5008542;28;20042;-73
2022/03/29 02:19:30;;;;;;;54.55;46.92;;;7.30;99.90;;;;;;4999800;28;20042;-72
2022/03/29 02:21:56;;;;;;;57.38;47.15;;;7.30;99.90;;;;;;4991066;28;20558;-74
2022/03/29 02:24:21;;;;;;;59.85;48.85;;;7.30;99.90;;;;;;5005341;28;20116;-73
2022/03/29 02:26:47;;;;;;;60.47;48.22;;;7.30;99.90;;;;;;5006818;28;20033;-73
2022/03/29 02:29:13;;;;;;;58.42;47.47;;;7.30;99.90;;;;;;4994679;28;20049;-72
2022/03/29 02:31:38;;;;;;;55.60;46.55;;;7.20;99.90;;;;;;5024016;28;20469;-73
2022/03/29 02:34:04;;;;;;;55.30;45.85;;;7.30;99.90;;;;;;5003265;28;20092;-73
2022/03/29 02:36:30;;;;;;;55.17;43.00;;;7.30;99.90;;;;;;4996999;28;20117;-73
2022/03/29 02:38:55;;;;;;;53.10;43.35;;;7.30;99.90;;;;;;5000343;28;20477;-73
2022/03/29 02:41:21;;;;;;;53.00;44.35;;;7.30;99.90;;;;;;5009340;28;20089;-73
2022/03/29 02:43:49;;;;;;;53.67;45.03;;;7.30;99.90;;;;;;5008935;28;20073;-73
2022/03/29 02:46:15;;;;;;;54.30;45.88;;;7.30;99.90;;;;;;5006981;28;20108;-73
2022/03/29 02:48:40;;;;;;;55.95;45.17;;;7.30;99.90;;;;;;5007723;28;20477;-73
2022/03/29 02:51:06;;;;;;;56.72;44.08;;;7.30;99.90;;;;;;4996323;28;20490;-73
2022/03/29 02:53:32;;;;;;;56.97;45.45;;;7.30;99.90;;;;;;5002161;28;20046;-73
2022/03/29 02:55:58;;;;;;;52.85;45.00;;;7.30;99.90;;;;;;5000491;28;20054;-73
2022/03/29 02:58:24;;;;;;;54.70;45.13;;;7.30;99.90;;;;;;4996624;28;20097;-73
2022/03/29 03:00:51;;;;;;;54.13;43.90;;;7.30;99.90;;;;;;5000751;28;20061;-73
2022/03/29 03:03:17;;;;;;;58.80;46.85;;;7.30;99.90;;;;;;4998704;28;20054;-73
2022/03/29 03:05:43;;;;;;;55.00;44.97;;;7.30;99.90;;;;;;5038002;28;20422;-73
2022/03/29 03:08:08;;;;;;;54.50;45.78;;;7.30;99.90;;;;;;5028855;28;20058;-73
2022/03/29 03:10:34;;;;;;;59.95;45.85;;;7.30;99.90;;;;;;5000133;28;20500;-73
2022/03/29 03:13:00;;;;;;;60.35;46.47;;;7.20;99.90;;;;;;5008765;28;20034;-73
2022/03/29 03:15:26;;;;;;;58.20;47.33;;;7.20;99.90;;;;;;5003573;28;20149;-73
2022/03/29 03:17:55;;;;;;;61.25;48.28;;;7.20;99.90;;;;;;4993828;28;20191;-73
2022/03/29 03:20:22;;;;;;;60.53;48.10;;;7.20;99.90;;;;;;5002357;28;20046;-73
2022/03/29 03:22:48;;;;;;;57.55;46.88;;;7.20;99.90;;;;;;5006451;28;20093;-73
2022/03/29 03:25:14;;;;;;;59.67;47.22;;;7.20;99.90;;;;;;5005412;28;20053;-73
2022/03/29 03:27:40;;;;;;;57.75;45.45;;;7.20;99.90;;;;;;5008282;28;20042;-73
2022/03/29 03:30:09;;;;;;;56.93;45.27;;;7.20;99.90;;;;;;4993501;28;20046;-73
2022/03/29 03:32:35;;;;;;;54.75;44.92;;;7.20;99.90;;;;;;4995866;28;20124;-73
2022/03/29 03:35:00;;;;;;;61.15;45.20;;;7.20;99.90;;;;;;5009351;28;20289;-73
2022/03/29 03:37:26;;;;;;;57.92;45.33;;;7.20;99.90;;;;;;4995464;28;20055;-72
2022/03/29 03:39:52;;;;;;;55.65;43.35;;;7.20;99.90;;;;;;4992336;28;20058;-73
2022/03/29 03:42:18;;;;;;;56.53;44.40;;;7.20;99.90;;;;;;4992468;28;20050;-73
2022/03/29 03:44:44;;;;;;;54.63;42.85;;;7.20;99.90;;;;;;4996726;28;20050;-73
2022/03/29 03:47:10;;;;;;;54.03;41.88;;;7.30;99.90;;;;;;4992710;28;20092;-72
2022/03/29 03:49:37;;;;;;;55.45;41.28;;;7.30;99.90;;;;;;5004360;28;20042;-72
2022/03/29 03:52:04;;;;;;;51.58;40.90;;;7.20;99.90;;;;;;5004920;28;20046;-73
2022/03/29 03:54:34;;;;;;;52.22;39.80;;;7.20;99.90;;;;;;4995306;28;20058;-73
2022/03/29 03:56:59;;;;;;;52.38;39.60;;;7.20;99.90;;;;;;5027289;28;20073;-72
2022/03/29 03:59:25;;;;;;;52.30;40.90;;;7.20;99.90;;;;;;4997194;28;20501;-73
2022/03/29 04:01:51;;;;;;;51.70;39.78;;;7.30;99.90;;;;;;4995743;28;20053;-73
2022/03/29 04:04:16;;;;;;;54.38;40.60;;;7.20;99.90;;;;;;4996969;28;20044;-73
2022/03/29 04:06:42;;;;;;;49.90;40.38;;;7.20;99.90;;;;;;4993463;28;20065;-73
2022/03/29 04:09:08;;;;;;;52.90;40.63;;;7.30;99.90;;;;;;5001237;28;20069;-73
2022/03/29 04:11:33;;;;;;;51.65;40.60;;;7.20;99.90;;;;;;4988324;28;20109;-72
2022/03/29 04:13:59;;;;;;;51.92;40.83;;;7.20;99.90;;;;;;4989544;28;20077;-73
2022/03/29 04:16:25;;;;;;;54.33;41.50;;;7.30;99.90;;;;;;4994160;28;20132;-73
2022/03/29 04:18:51;;;;;;;56.42;43.08;;;7.20;99.90;;;;;;4994833;28;20041;-73
2022/03/29 04:21:17;;;;;;;53.50;41.17;;;7.20;99.90;;;;;;4994396;28;20062;-73
2022/03/29 04:23:43;;;;;;;53.45;41.28;;;7.20;99.90;;;;;;5002009;28;20390;-73
2022/03/29 04:26:08;;;;;;;57.38;41.95;;;7.20;99.90;;;;;;5003219;28;20055;-73
2022/03/29 04:28:34;;;;;;;59.65;41.85;;;7.20;99.90;;;;;;4998891;28;20466;-73
2022/03/29 04:31:00;;;;;;;56.42;42.47;;;7.20;99.90;;;;;;5007854;28;20034;-73
2022/03/29 04:33:26;;;;;;;55.83;41.20;;;7.20;99.90;;;;;;5013080;28;20045;-73
2022/03/29 04:35:52;;;;;;;56.78;42.95;;;7.30;99.90;;;;;;5011834;28;20034;-73
2022/03/29 04:38:17;;;;;;;55.45;41.90;;;7.30;99.90;;;;;;5010952;28;20033;-73
2022/03/29 04:40:43;;;;;;;59.30;40.88;;;7.20;99.90;;;;;;5039356;28;20046;-73
2022/03/29 04:43:09;;;;;;;57.00;40.88;;;7.30;99.90;;;;;;4992658;28;20113;-73
2022/03/29 04:45:34;;;;;;;59.60;41.55;;;7.20;99.90;;;;;;5006156;28;20477;-73
2022/03/29 04:48:00;;;;;;;55.28;41.45;;;7.30;99.90;;;;;;5042374;28;20053;-73
2022/03/29 04:50:26;;;;;;;53.72;40.80;;;7.30;99.90;;;;;;5009581;28;20400;-73
2022/03/29 04:52:51;;;;;;;57.70;41.97;;;7.30;99.90;;;;;;5008573;28;20042;-73
2022/03/29 04:55:18;;;;;;;54.47;41.00;;;7.30;99.90;;;;;;5011958;28;20358;-72
2022/03/29 04:57:47;;;;;;;52.45;40.95;;;7.30;99.90;;;;;;5010642;28;20065;-73
2022/03/29 05:00:16;;;;;;;55.80;41.38;;;7.30;99.90;;;;;;4997609;28;20049;-73
2022/03/29 05:02:43;;;;;;;54.80;41.17;;;7.30;99.90;;;;;;4993454;28;20053;-72
2022/03/29 05:05:10;;;;;;;55.97;43.15;;;7.30;99.90;;;;;;5009866;28;20061;-73
2022/03/29 05:07:36;;;;;;;52.73;40.57;;;7.40;99.90;;;;;;5011117;28;20045;-72
2022/03/29 05:10:03;;;;;;;60.35;41.53;;;7.30;99.90;;;;;;5043054;28;20164;-73
2022/03/29 05:12:29;;;;;;;59.37;41.67;;;7.40;99.90;;;;;;5011464;28;20544;-72
2022/03/29 05:14:54;;;;;;;55.20;41.33;;;7.30;99.90;;;;;;4992004;28;20042;-72
2022/03/29 05:17:20;;;;;;;52.90;41.38;;;7.40;99.90;;;;;;5023521;28;20054;-73
2022/03/29 05:19:45;;;;;;;56.08;42.80;;;7.40;99.90;;;;;;5039855;28;20080;-73
2022/03/29 05:22:11;;;;;;;55.90;41.47;;;7.40;99.90;;;;;;5043952;28;20054;-72
2022/03/29 05:24:37;;;;;;;55.13;40.92;;;7.30;99.90;;;;;;5037191;28;20046;-73
2022/03/29 05:27:03;;;;;;;57.72;41.88;;;7.40;99.90;;;;;;4995169;28;20048;-73
2022/03/29 05:29:30;;;;;;;58.17;40.45;;;7.30;99.90;;;;;;5012387;28;20441;-72
2022/03/29 05:31:57;;;;;;;54.83;39.90;;;7.40;99.90;;;;;;5003841;28;20077;-72
2022/03/29 05:34:23;;;;;;;54.10;39.25;;;7.30;99.90;;;;;;5008412;28;20081;-72
2022/03/29 05:36:49;;;;;;;53.60;39.42;;;7.40;99.90;;;;;;5010099;28;20037;-73
2022/03/29 05:39:16;;;;;;;53.30;41.10;;;7.30;99.90;;;;;;5008453;28;20054;-72
2022/03/29 05:41:42;;;;;;;53.40;40.00;;;7.40;99.90;;;;;;5004264;28;20047;-73
2022/03/29 05:44:08;;;;;;;54.42;39.53;;;7.40;99.90;;;;;;5009301;28;20304;-72
2022/03/29 05:49:22;;;;;;;47.80;35.83;;;7.40;99.90;;;;;;5011816;28;20050;-72
2022/03/29 05:51:50;;;;;;;47.28;35.42;;;7.40;99.90;;;;;;5011153;28;20053;-73
2022/03/29 05:54:17;;;;;;;44.45;33.40;;;7.40;99.90;;;;;;5037152;28;20065;-72
2022/03/29 05:56:43;;;;;;;44.40;34.28;;;7.40;99.90;;;;;;4992006;28;20534;-72
2022/03/29 05:59:08;;;;;;;41.40;33.22;;;7.40;99.90;;;;;;4990048;28;20457;-71
2022/03/29 06:01:34;;;;;;;42.38;32.20;;;7.40;99.90;;;;;;4997738;28;20034;-72
2022/03/29 06:04:01;;;;;;;44.30;32.38;;;7.40;99.90;;;;;;5023636;28;20050;-73
2022/03/29 06:06:27;;;;;;;43.75;32.25;;;7.40;99.90;;;;;;4999067;28;20052;-73
2022/03/29 06:08:52;;;;;;;41.70;32.20;;;7.40;99.90;;;;;;5010099;28;20454;-73
2022/03/29 06:11:18;;;;;;;42.45;31.60;;;7.40;99.90;;;;;;5009547;28;20089;-73
2022/03/29 06:13:43;;;;;;;44.92;32.50;;;7.40;99.90;;;;;;5007292;28;20041;-73
2022/03/29 06:16:09;;;;;;;41.60;31.63;;;7.40;99.90;;;;;;4999231;28;20053;-73
2022/03/29 06:18:35;;;;;;;43.17;30.85;;;7.40;99.90;;;;;;5010670;28;20469;-73
2022/03/29 06:21:01;;;;;;;45.47;32.17;;;7.40;99.90;;;;;;5040481;28;20062;-72
2022/03/29 06:23:27;;;;;;;41.15;32.70;;;7.40;99.90;;;;;;5009262;28;20459;-72
2022/03/29 06:25:54;;;;;;;43.13;33.72;;;7.40;99.90;;;;;;5039536;28;20046;-72
2022/03/29 06:28:19;;;;;;;45.40;33.40;;;7.40;99.90;;;;;;5008330;28;20046;-72
2022/03/29 06:30:45;;;;;;;48.10;34.50;;;7.40;99.90;;;;;;5004920;28;20034;-73
2022/03/29 06:33:11;;;;;;;51.03;34.28;;;7.40;99.90;;;;;;5006762;28;20057;-72
2022/03/29 06:35:38;;;;;;;46.63;34.95;;;7.50;99.90;;;;;;4996388;28;20049;-72
2022/03/29 06:38:05;;;;;;;43.63;34.40;;;7.50;99.90;;;;;;5008928;28;20049;-73
2022/03/29 06:40:31;;;;;;;47.40;34.17;;;7.50;99.90;;;;;;5004636;28;20326;-72
2022/03/29 06:42:57;;;;;;;45.17;34.22;;;7.50;99.90;;;;;;5035524;28;20058;-73
2022/03/29 06:45:24;;;;;;;43.92;33.20;;;7.50;99.90;;;;;;5002021;28;20141;-72
2022/03/29 06:47:50;;;;;;;43.87;34.17;;;7.50;99.90;;;;;;5008000;28;20489;-72
2022/03/29 06:50:16;;;;;;;46.22;34.10;;;7.50;99.90;;;;;;5007727;28;20091;-72
2022/03/29 06:52:44;;;;;;;46.47;34.92;;;7.50;99.90;;;;;;4989106;28;20136;-73
2022/03/29 06:55:14;;;;;;;44.90;34.58;;;7.50;99.90;;;;;;4996801;28;20049;-72
2022/03/29 06:57:46;;;;;;;46.63;34.05;;;7.50;99.90;;;;;;4993877;28;20041;-73
2022/03/29 07:00:12;;;;;;;46.42;33.95;;;7.50;99.90;;;;;;5008759;28;20041;-73
2022/03/29 07:02:38;;;;;;;45.70;34.85;;;7.50;99.90;;;;;;5007217;28;20049;-73
2022/03/29 07:05:04;;;;;;;45.30;33.13;;;7.50;99.90;;;;;;5008347;28;20508;-73
2022/03/29 07:07:30;;;;;;;46.45;33.47;;;7.50;99.90;;;;;;5009589;28;20034;-73
2022/03/29 07:12:48;;;;;;;45.80;33.80;;;7.60;99.90;;;;;;5009611;28;20053;-72
2022/03/29 07:15:14;;;;;;;48.33;34.33;;;7.60;99.90;;;;;;5003150;28;20053;-72
2022/03/29 07:17:40;;;;;;;48.47;34.55;;;7.70;99.90;;;;;;5009123;28;20628;-73
2022/03/29 07:20:05;;;;;;;48.95;34.67;;;7.70;99.90;;;;;;5033724;28;20419;-73
2022/03/29 07:22:31;;;;;;;48.20;35.15;;;7.80;99.90;;;;;;4989727;28;20062;-72
2022/03/29 07:24:57;;;;;;;44.38;34.30;;;7.80;99.90;;;;;;4995257;28;20045;-72
2022/03/29 07:27:22;;;;;;;44.05;34.13;;;7.90;99.90;;;;;;5008096;28;20045;-73
2022/03/29 07:29:49;;;;;;;48.58;34.05;;;8.00;99.90;;;;;;5035386;28;20164;-76
2022/03/29 07:32:15;;;;;;;42.50;33.50;;;8.00;99.90;;;;;;4993132;28;20143;-76
2022/03/29 07:34:41;;;;;;;44.35;33.35;;;8.10;99.90;;;;;;4997947;28;20046;-75
2022/03/29 07:37:07;;;;;;;45.50;33.50;;;8.10;99.90;;;;;;5020437;28;20434;-76
2022/03/29 07:39:33;;;;;;;50.13;35.13;;;8.20;99.90;;;;;;4992178;28;20046;-76
2022/03/29 07:41:59;;;;;;;46.28;33.50;;;8.20;99.90;;;;;;4994489;28;20119;-76
2022/03/29 07:44:24;;;;;;;47.97;34.10;;;8.20;99.90;;;;;;4991834;28;20162;-76
2022/03/29 07:46:50;;;;;;;51.25;34.10;;;8.20;99.90;;;;;;4989137;28;20042;-76
2022/03/29 07:49:16;;;;;;;45.03;33.55;;;8.20;99.90;;;;;;5000671;28;20046;-76
2022/03/29 07:51:42;;;;;;;46.75;34.17;;;8.30;99.90;;;;;;5002256;28;20050;-76
2022/03/29 07:54:10;;;;;;;45.70;33.15;;;8.30;99.90;;;;;;4997963;28;20049;-75
2022/03/29 07:56:36;;;;;;;44.83;33.30;;;8.30;99.90;;;;;;5002152;28;20057;-73
2022/03/29 07:59:01;;;;;;;42.72;33.00;;;8.40;99.90;;;;;;5029676;28;20038;-73
2022/03/29 08:01:28;;;;;;;44.38;32.80;;;8.40;99.90;;;;;;5006055;28;20367;-74
2022/03/29 08:03:55;;;;;;;45.05;33.85;;;8.50;99.90;;;;;;5008942;28;20045;-73
2022/03/29 08:06:20;;;;;;;43.30;30.83;;;8.50;99.90;;;;;;5008763;28;20481;-72
2022/03/29 08:08:46;;;;;;;42.30;31.80;;;8.60;99.90;;;;;;5000802;28;20146;-72
2022/03/29 08:11:11;;;;;;;42.47;32.50;;;8.60;99.90;;;;;;4989446;28;20043;-72
2022/03/29 08:13:37;;;;;;;46.33;33.65;;;8.70;99.90;;;;;;4996026;28;20082;-71
2022/03/29 08:16:03;;;;;;;44.28;31.55;;;8.80;99.90;;;;;;5023099;28;20112;-71
2022/03/29 08:18:30;;;;;;;43.17;32.22;;;8.90;99.90;;;;;;4995332;28;20041;-74
2022/03/29 08:20:56;;;;;;;42.73;30.43;;;8.90;99.90;;;;;;4987774;28;20719;-73
2022/03/29 08:23:22;;;;;;;40.85;31.05;;;8.90;99.90;;;;;;5031815;28;20304;-72
2022/03/29 08:25:48;;;;;;;40.42;31.02;;;9.00;99.90;;;;;;5000264;28;20693;-72
2022/03/29 08:28:15;;;;;;;42.38;31.27;;;9.00;99.90;;;;;;5025032;28;20038;-72
2022/03/29 08:30:42;;;;;;;38.22;30.77;;;9.10;99.90;;;;;;5039745;28;20038;-73
2022/03/29 08:33:08;;;;;;;40.28;29.58;;;9.10;99.90;;;;;;5011596;28;20052;-72
2022/03/29 08:35:37;;;;;;;41.35;30.65;;;9.10;99.90;;;;;;5020429;28;20375;-73
2022/03/29 08:38:03;;;;;;;39.47;31.02;;;9.10;99.90;;;;;;4988717;28;20117;-72
2022/03/29 08:40:29;;;;;;;40.00;30.48;;;9.10;99.90;;;;;;5000347;28;20088;-74
2022/03/29 08:42:58;;;;;;;42.80;31.35;;;9.10;99.90;;;;;;4990252;28;20078;-73
2022/03/29 08:45:27;;;;;;;39.38;29.33;;;9.20;99.90;;;;;;4995485;28;20100;-73
2022/03/29 08:47:56;;;;;;;41.50;28.83;;;9.20;99.90;;;;;;4996632;28;20375;-72
2022/03/29 08:50:23;;;;;;;41.35;28.00;;;9.30;99.90;;;;;;4998678;28;20046;-73
2022/03/29 08:52:53;;;;;;;41.22;29.00;;;9.30;99.90;;;;;;5031513;28;20047;-71
2022/03/29 08:55:20;;;;;;;45.05;28.67;;;9.30;99.90;;;;;;5006262;28;20042;-71
2022/03/29 08:57:49;;;;;;;38.20;28.00;;;9.20;99.90;;;;;;5008863;28;20056;-73
2022/03/29 09:00:17;;;;;;;36.95;27.23;;;9.20;99.90;;;;;;5006058;28;20453;-73
2022/03/29 09:02:43;;;;;;;41.95;27.90;;;9.20;99.90;;;;;;5043007;28;20088;-71
2022/03/29 09:05:15;;;;;;;39.70;27.40;;;9.30;99.90;;;;;;5011920;28;20042;-74
2022/03/29 09:07:58;;;;;;;43.67;28.98;;;9.30;99.90;;;;;;5010793;28;20068;-71
2022/03/29 09:10:45;;;;;;;40.63;29.20;;;9.30;99.90;;;;;;5011050;28;20046;-75
2022/03/29 09:13:23;;;;;;;38.90;28.80;;;9.40;99.90;;;;;;5012535;28;20041;-75
2022/03/29 09:15:51;;;;;;;42.97;29.63;;;9.30;99.90;;;;;;5008990;28;20042;-74
2022/03/29 09:18:17;;;;;;;41.78;28.98;;;9.40;99.90;;;;;;5026813;28;20038;-72
2022/03/29 09:20:45;;;;;;;41.75;28.05;;;9.40;99.90;;;;;;5007225;28;20034;-74
2022/03/29 09:23:17;;;;;;;40.85;28.73;;;9.40;99.90;;;;;;5002069;28;20054;-72
2022/03/29 09:25:47;;;;;;;42.42;28.65;;;9.50;99.90;;;;;;4992013;28;20048;-73
2022/03/29 09:28:15;;;;;;;42.78;28.33;;;9.50;99.90;;;;;;5004486;28;20042;-74
2022/03/29 09:30:55;;;;;;;39.97;28.00;;;9.60;99.90;;;;;;5009656;28;20552;-74
2022/03/29 09:33:31;;;;;;;40.55;28.23;;;9.60;99.90;;;;;;5034987;28;20704;-73
2022/03/29 09:36:04;;;;;;;42.22;28.25;;;9.70;99.90;;;;;;5002421;28;20740;-75
2022/03/29 09:38:47;;;;;;;39.97;27.75;;;9.80;99.90;;;;;;4999372;28;20049;-73
2022/03/29 09:41:26;;;;;;;35.38;26.77;;;9.80;99.90;;;;;;5030281;28;20066;-73
2022/03/29 09:44:06;;;;;;;36.17;27.55;;;9.80;99.90;;;;;;5009806;28;20034;-73
2022/03/29 09:46:55;;;;;;;40.78;28.15;;;9.90;99.90;;;;;;4994265;28;20050;-75
2022/03/29 09:49:21;;;;;;;40.47;27.58;;;10.00;99.90;;;;;;5008971;28;20037;-74
2022/03/29 09:51:48;;;;;;;40.03;29.13;;;10.10;99.90;;;;;;4995870;28;20398;-74
2022/03/29 09:54:14;;;;;;;46.13;28.10;;;10.10;99.90;;;;;;4995583;28;20046;-77
2022/03/29 09:56:49;;;;;;;42.33;27.83;;;10.10;99.90;;;;;;5006074;28;20497;-77
2022/03/29 09:59:16;;;;;;;44.13;27.95;;;10.10;99.90;;;;;;4992136;28;20078;-78
2022/03/29 10:01:51;;;;;;;44.17;29.42;;;10.10;99.90;;;;;;5004843;28;20041;-73
2022/03/29 10:04:18;;;;;;;46.13;29.85;;;10.10;99.90;;;;;;5005174;28;20433;-73
2022/03/29 10:06:46;;;;;;;41.75;29.10;;;10.00;99.90;;;;;;5040508;28;20080;-73
2022/03/29 10:09:29;;;;;;;37.35;27.83;;;10.00;99.90;;;;;;5007653;28;20076;-73
2022/03/29 10:11:57;;;;;;;38.10;28.92;;;10.00;99.90;;;;;;5006489;28;20539;-72
2022/03/29 10:14:25;;;;;;;45.90;29.80;;;10.00;99.90;;;;;;5002130;28;20504;-73
2022/03/29 10:16:53;;;;;;;40.95;29.05;;;10.00;99.90;;;;;;5008296;28;20107;-71
2022/03/29 10:19:20;;;;;;;40.88;28.33;;;10.10;99.90;;;;;;5009242;28;20097;-78
2022/03/29 10:21:46;;;;;;;45.25;29.23;;;10.10;99.90;;;;;;5007275;28;20485;-73
2022/03/29 10:24:17;;;;;;;39.35;27.90;;;10.10;99.90;;;;;;5008856;28;20060;-73
2022/03/29 10:26:45;;;;;;;37.28;27.90;;;10.10;99.90;;;;;;5009090;28;20042;-74
2022/03/29 10:29:11;;;;;;;40.85;29.73;;;10.00;99.90;;;;;;5024963;28;20520;-74
2022/03/29 10:31:47;;;;;;;40.80;29.60;;;10.00;99.90;;;;;;4999100;28;20056;-73
2022/03/29 10:34:18;;;;;;;44.90;29.45;;;10.10;99.90;;;;;;5028458;28;20575;-73
2022/03/29 10:37:04;;;;;;;37.92;28.48;;;10.20;99.90;;;;;;5009596;28;20111;-74
2022/03/29 10:39:52;;;;;;;39.45;27.45;;;10.30;99.90;;;;;;5009808;28;20097;-74
2022/03/29 10:42:35;;;;;;;43.00;29.13;;;10.30;99.90;;;;;;5006931;28;20509;-74
2022/03/29 10:45:21;;;;;;;39.35;29.20;;;10.40;99.90;;;;;;5008547;28;20054;-74
2022/03/29 10:48:09;;;;;;;38.67;28.87;;;10.40;99.90;;;;;;5008656;28;20042;-75
2022/03/29 10:50:53;;;;;;;45.78;30.92;;;10.60;99.90;;;;;;5002556;28;20548;-74
2022/03/29 10:53:29;;;;;;;41.92;30.05;;;10.70;99.90;;;;;;5033310;28;20054;-75
2022/03/29 10:56:16;;;;;;;39.28;29.05;;;10.80;99.90;;;;;;5007739;28;20042;-71
2022/03/29 10:59:11;;;;;;;41.38;29.45;;;10.80;99.90;;;;;;5003983;28;20042;-76
2022/03/29 11:01:38;;;;;;;43.08;29.80;;;10.90;99.90;;;;;;5009231;28;20577;-72
2022/03/29 11:04:15;;;;;;;41.25;30.20;;;11.00;99.90;;;;;;4995632;28;20082;-72
2022/03/29 11:07:09;;;;;;;37.13;29.25;;;11.00;99.90;;;;;;5006591;28;20046;-73
2022/03/29 11:09:37;;;;;;;41.70;29.48;;;11.10;99.90;;;;;;5029393;28;20047;-73
2022/03/29 11:12:03;;;;;;;40.42;29.08;;;11.30;99.90;;;;;;5003781;28;20643;-72
2022/03/29 11:14:33;;;;;;;36.90;28.90;;;11.30;99.90;;;;;;5008271;28;20108;-72
2022/03/29 11:17:14;;;;;;;43.33;28.73;;;11.40;99.90;;;;;;5008242;28;20430;-73
2022/03/29 11:19:50;;;;;;;43.92;30.58;;;11.50;99.90;;;;;;5008401;28;20429;-72
2022/03/29 11:22:45;;;;;;;40.50;28.85;;;11.60;99.90;;;;;;4999307;28;20053;-75
2022/03/29 11:25:14;;;;;;;37.78;29.95;;;11.70;99.90;;;;;;4994311;28;20061;-73
2022/03/29 11:27:41;;;;;;;40.55;29.17;;;11.80;99.90;;;;;;5007993;28;20069;-73
2022/03/29 11:30:07;;;;;;;38.28;29.33;;;11.80;99.90;;;;;;5007578;28;20054;-73
2022/03/29 11:32:34;;;;;;;45.00;28.27;;;11.80;99.80;;;;;;5009561;28;20083;-73
2022/03/29 11:35:02;;;;;;;40.83;30.10;;;11.70;99.40;;;;;;5007740;28;20049;-73
2022/03/29 11:37:33;;;;;;;37.78;28.02;;;11.70;99.90;;;;;;5007165;28;20409;-73
2022/03/29 11:40:02;;;;;;;37.83;27.75;;;11.70;99.80;;;;;;5007588;28;20054;-73
2022/03/29 11:42:49;;;;;;;36.75;27.73;;;11.70;98.90;;;;;;5008663;28;20077;-73
2022/03/29 11:45:17;;;;;;;34.25;26.85;;;11.70;99.90;;;;;;5009108;28;20077;-73
2022/03/29 11:47:53;;;;;;;;;;;11.50;98.80;;;;;;5007568;28;20034;-73
2022/03/29 11:50:49;;;;;;;39.38;27.45;;;11.40;98.70;;;;;;5006227;28;20000;-73
2022/03/29 11:53:23;;;;;;;36.38;25.95;;;11.40;99.40;;;;;;5008370;28;20297;-73
2022/03/29 11:55:57;;;;;;;35.67;26.10;;;11.50;98.70;;;;;;5009049;28;20061;-73
2022/03/29 11:58:51;;;;;;;37.47;27.23;;;11.50;98.40;;;;;;5008285;28;20049;-74
2022/03/29 12:01:24;;;;;;;36.30;26.73;;;11.60;99.90;;;;;;5005206;28;20401;-73
2022/03/29 12:04:07;;;;;;;38.03;26.92;;;11.70;98.60;;;;;;5007584;28;20056;-73
2022/03/29 12:06:49;;;;;;;35.83;26.20;;;11.80;97.80;;;;;;5006230;28;20049;-76
2022/03/29 12:09:22;;;;;;;37.42;25.48;;;11.80;96.90;;;;;;5000814;28;20046;-79
2022/03/29 12:11:48;;;;;;;35.80;25.40;;;11.90;98.40;;;;;;5001178;28;20046;-76
2022/03/29 12:14:19;;;;;;;36.30;25.95;;;12.10;98.00;;;;;;5002834;28;20053;-76
2022/03/29 12:17:03;;;;;;;38.85;25.80;;;12.10;95.40;;;;;;5024374;28;20051;-75
2022/03/29 12:19:29;;;;;;;37.25;26.63;;;12.30;94.90;;;;;;4992729;28;20035;-78
2022/03/29 12:22:11;;;;;;;41.93;26.80;;;12.30;94.60;;;;;;4998656;28;20100;-74
2022/03/29 12:24:39;;;;;;;38.20;25.30;;;12.30;95.90;;;;;;4995857;28;20050;-74
2022/03/29 12:27:17;;;;;;;38.58;25.50;;;12.40;93.90;;;;;;5005524;28;20039;-74
2022/03/29 12:29:48;;;;;;;36.80;25.75;;;12.50;93.10;;;;;;5000860;28;20038;-74
2022/03/29 12:32:14;;;;;;;37.90;25.35;;;12.50;92.30;;;;;;4996639;28;20442;-74
2022/03/29 12:34:42;;;;;;;33.85;24.30;;;12.50;90.30;;;;;;5033638;28;20135;-74
2022/03/29 12:37:15;;;;;;;35.42;25.98;;;12.40;90.10;;;;;;5037099;28;20045;-73
2022/03/29 12:39:43;;;;;;;34.15;24.88;;;12.40;92.10;;;;;;5001550;28;20046;-74
2022/03/29 12:42:14;;;;;;;35.20;24.63;;;12.40;91.10;;;;;;5011839;28;20072;-78
2022/03/29 12:44:46;;;;;;;32.65;23.33;;;12.30;89.80;;;;;;4999103;28;20030;-69
2022/03/29 12:47:15;;;;;;;33.67;25.55;;;12.40;92.80;;;;;;5012311;28;20037;-69
2022/03/29 12:49:42;;;;;;;33.90;24.00;;;12.50;91.60;;;;;;5016054;28;20108;-73
2022/03/29 12:52:11;;;;;;;34.42;23.95;;;12.70;90.50;;;;;;5001714;28;20049;-71